createdAt,value
2023-01-20T00:00:55.752Z,0.00
2023-01-20T00:01:55.752Z,0.00
2023-01-20T00:02:55.813Z,0.00
2023-01-20T00:03:55.769Z,0.00
2023-01-20T00:04:55.736Z,0.00
2023-01-20T00:05:55.717Z,0.00
2023-01-20T00:06:55.750Z,0.00
2023-01-20T00:08:04.122Z,0.00
2023-01-20T00:08:55.707Z,0.00
2023-01-20T00:09:55.712Z,0.00
2023-01-20T00:10:55.699Z,0.00
2023-01-20T00:11:55.689Z,0.00
2023-01-20T00:13:05.902Z,0.00
2023-01-20T00:13:55.681Z,0.00
2023-01-20T00:15:04.083Z,0.00
2023-01-20T00:15:55.740Z,0.00
2023-01-20T00:16:55.677Z,0.00
2023-01-20T00:17:55.669Z,0.00
2023-01-20T00:18:55.672Z,0.00
2023-01-20T00:19:55.773Z,0.00
2023-01-20T00:20:55.634Z,0.00
2023-01-20T00:22:04.347Z,0.00
2023-01-20T00:22:55.641Z,0.00
2023-01-20T00:23:55.636Z,0.00
2023-01-20T00:24:55.653Z,0.00
2023-01-20T00:26:07.159Z,0.00
2023-01-20T00:27:06.213Z,0.00
2023-01-20T00:28:03.212Z,0.00
2023-01-20T00:28:55.633Z,0.00
2023-01-20T00:29:55.599Z,0.00
2023-01-20T00:30:55.737Z,0.00
2023-01-20T00:31:55.608Z,0.00
2023-01-20T00:32:55.607Z,0.00
2023-01-20T00:33:55.603Z,0.00
2023-01-20T00:34:55.585Z,0.00
2023-01-20T00:35:55.587Z,0.00
2023-01-20T00:36:55.586Z,0.00
2023-01-20T00:37:55.577Z,0.00
2023-01-20T00:38:55.568Z,0.00
2023-01-20T00:39:55.652Z,0.00
2023-01-20T00:40:55.549Z,0.00
2023-01-20T00:41:55.556Z,0.00
2023-01-20T00:42:55.547Z,0.00
2023-01-20T00:43:55.552Z,0.00
2023-01-20T00:44:55.551Z,0.00
2023-01-20T00:45:55.552Z,0.00
2023-01-20T00:47:04.756Z,0.00
2023-01-20T00:47:55.509Z,0.00
2023-01-20T00:48:55.526Z,0.00
2023-01-20T00:49:55.511Z,0.00
2023-01-20T00:50:55.530Z,0.00
2023-01-20T00:51:55.567Z,0.00
2023-01-20T00:52:55.491Z,0.00
2023-01-20T00:53:55.565Z,0.00
2023-01-20T00:54:55.491Z,0.00
2023-01-20T00:55:55.473Z,0.00
2023-01-20T00:57:06.822Z,0.00
2023-01-20T00:57:55.487Z,0.00
2023-01-20T00:59:04.808Z,0.00
2023-01-20T00:59:55.757Z,0.00
2023-01-20T01:00:55.581Z,0.00
2023-01-20T01:01:55.541Z,0.00
2023-01-20T01:02:55.469Z,0.00
2023-01-20T01:03:55.450Z,0.00
2023-01-20T01:05:04.869Z,0.00
2023-01-20T01:05:55.434Z,0.00
2023-01-20T01:06:55.478Z,0.00
2023-01-20T01:07:55.438Z,0.00
2023-01-20T01:08:55.416Z,0.00
2023-01-20T01:10:03.913Z,0.00
2023-01-20T01:10:55.398Z,0.00
2023-01-20T01:11:55.591Z,0.00
2023-01-20T01:12:55.434Z,0.00
2023-01-20T01:13:55.386Z,0.00
2023-01-20T01:14:55.384Z,0.00
2023-01-20T01:16:06.469Z,0.00
2023-01-20T01:16:57.364Z,0.00
2023-01-20T01:17:55.378Z,0.00
2023-01-20T01:18:55.402Z,0.00
2023-01-20T01:19:55.395Z,0.00
2023-01-20T01:20:55.358Z,0.00
2023-01-20T01:22:02.914Z,0.00
2023-01-20T01:22:55.358Z,0.00
2023-01-20T01:23:55.355Z,0.00
2023-01-20T01:24:55.351Z,0.00
2023-01-20T01:25:55.344Z,0.00
2023-01-20T01:26:55.339Z,0.00
2023-01-20T01:27:55.355Z,0.00
2023-01-20T01:28:55.342Z,0.00
2023-01-20T01:29:55.332Z,0.00
2023-01-20T01:30:55.347Z,0.00
2023-01-20T01:31:55.323Z,0.00
2023-01-20T01:32:55.310Z,0.00
2023-01-20T01:33:55.314Z,0.00
2023-01-20T01:34:55.299Z,0.00
2023-01-20T01:35:55.313Z,0.00
2023-01-20T01:36:55.299Z,0.00
2023-01-20T01:38:04.500Z,0.00
2023-01-20T01:38:59.115Z,0.00
2023-01-20T01:39:55.263Z,0.00
2023-01-20T01:40:55.265Z,0.00
2023-01-20T01:41:55.266Z,0.00
2023-01-20T01:42:55.283Z,0.00
2023-01-20T01:43:55.256Z,0.00
2023-01-20T01:44:55.264Z,0.00
2023-01-20T01:45:55.294Z,0.00
2023-01-20T01:46:55.236Z,0.00
2023-01-20T01:47:55.247Z,0.00
2023-01-20T01:48:55.255Z,0.00
2023-01-20T01:49:55.265Z,0.00
2023-01-20T01:50:55.222Z,0.00
2023-01-20T01:51:55.219Z,0.00
2023-01-20T01:52:55.218Z,0.00
2023-01-20T01:53:55.220Z,0.00
2023-01-20T01:55:02.809Z,0.00
2023-01-20T01:55:55.198Z,0.00
2023-01-20T01:56:55.215Z,0.00
2023-01-20T01:58:03.583Z,0.00
2023-01-20T01:58:55.235Z,0.00
2023-01-20T01:59:55.218Z,0.00
2023-01-20T02:00:55.172Z,0.00
2023-01-20T02:01:55.387Z,0.00
2023-01-20T02:02:55.183Z,0.00
2023-01-20T02:03:55.173Z,0.00
2023-01-20T02:04:55.160Z,0.00
2023-01-20T02:05:55.173Z,0.00
2023-01-20T02:06:55.167Z,0.00
2023-01-20T02:07:55.164Z,0.00
2023-01-20T02:08:55.158Z,0.00
2023-01-20T02:09:55.141Z,0.00
2023-01-20T02:10:55.134Z,0.00
2023-01-20T02:11:55.142Z,0.00
2023-01-20T02:12:55.130Z,0.00
2023-01-20T02:13:55.120Z,0.00
2023-01-20T02:14:55.131Z,0.00
2023-01-20T02:15:55.124Z,0.00
2023-01-20T02:16:55.106Z,0.00
2023-01-20T02:17:55.133Z,0.00
2023-01-20T02:18:55.119Z,0.00
2023-01-20T02:19:55.095Z,0.00
2023-01-20T02:20:55.291Z,0.00
2023-01-20T02:21:55.125Z,0.00
2023-01-20T02:23:03.659Z,0.00
2023-01-20T02:23:55.071Z,0.00
2023-01-20T02:24:55.078Z,0.00
2023-01-20T02:25:55.063Z,0.00
2023-01-20T02:26:55.058Z,0.00
2023-01-20T02:27:55.080Z,0.00
2023-01-20T02:28:55.057Z,0.00
2023-01-20T02:29:55.073Z,0.00
2023-01-20T02:30:55.147Z,0.00
2023-01-20T02:31:55.157Z,0.00
2023-01-20T02:32:55.039Z,0.00
2023-01-20T02:33:55.049Z,0.00
2023-01-20T02:34:55.100Z,0.00
2023-01-20T02:35:55.039Z,0.00
2023-01-20T02:36:55.032Z,0.00
2023-01-20T02:37:55.033Z,0.00
2023-01-20T02:38:55.031Z,0.00
2023-01-20T02:39:55.030Z,0.00
2023-01-20T02:40:55.047Z,0.00
2023-01-20T02:41:54.986Z,0.00
2023-01-20T02:42:55.129Z,0.00
2023-01-20T02:43:55.020Z,0.00
2023-01-20T02:44:55.070Z,0.00
2023-01-20T02:45:55.112Z,0.00
2023-01-20T02:46:55.023Z,0.00
2023-01-20T02:47:54.995Z,0.00
2023-01-20T02:48:54.952Z,0.00
2023-01-20T02:49:54.967Z,0.00
2023-01-20T02:50:54.986Z,0.00
2023-01-20T02:51:54.968Z,0.00
2023-01-20T02:52:54.964Z,0.00
2023-01-20T02:53:54.954Z,0.00
2023-01-20T02:54:54.984Z,0.00
2023-01-20T02:55:54.954Z,0.00
2023-01-20T02:56:54.939Z,0.00
2023-01-20T02:57:54.948Z,0.00
2023-01-20T02:58:54.956Z,0.00
2023-01-20T02:59:54.930Z,0.00
2023-01-20T03:00:55.000Z,0.00
2023-01-20T03:01:55.034Z,0.00
2023-01-20T03:02:54.916Z,0.00
2023-01-20T03:03:54.973Z,0.00
2023-01-20T03:04:54.930Z,0.00
2023-01-20T03:05:54.929Z,0.00
2023-01-20T03:06:54.904Z,0.00
2023-01-20T03:07:54.932Z,0.00
2023-01-20T03:08:54.929Z,0.00
2023-01-20T03:09:54.876Z,0.00
2023-01-20T03:10:54.874Z,0.00
2023-01-20T03:11:54.925Z,0.00
2023-01-20T03:12:54.859Z,0.00
2023-01-20T03:13:54.875Z,0.00
2023-01-20T03:14:54.900Z,0.00
2023-01-20T03:15:54.834Z,0.00
2023-01-20T03:16:54.884Z,0.00
2023-01-20T03:17:54.848Z,0.00
2023-01-20T03:18:54.913Z,0.00
2023-01-20T03:19:54.832Z,0.00
2023-01-20T03:20:54.893Z,0.00
2023-01-20T03:21:54.851Z,0.00
2023-01-20T03:22:54.833Z,0.00
2023-01-20T03:23:54.839Z,0.00
2023-01-20T03:24:54.809Z,0.00
2023-01-20T03:25:54.990Z,0.00
2023-01-20T03:26:54.821Z,0.00
2023-01-20T03:27:55.037Z,0.00
2023-01-20T03:28:54.789Z,0.00
2023-01-20T03:29:55.015Z,0.00
2023-01-20T03:30:54.873Z,0.00
2023-01-20T03:31:54.784Z,0.00
2023-01-20T03:32:54.782Z,0.00
2023-01-20T03:33:54.767Z,0.00
2023-01-20T03:34:54.772Z,0.00
2023-01-20T03:35:54.748Z,0.00
2023-01-20T03:36:54.782Z,0.00
2023-01-20T03:37:54.734Z,0.00
2023-01-20T03:38:54.756Z,0.00
2023-01-20T03:39:54.734Z,0.00
2023-01-20T03:40:54.747Z,0.00
2023-01-20T03:41:54.763Z,0.00
2023-01-20T03:42:54.767Z,0.00
2023-01-20T03:43:54.738Z,0.00
2023-01-20T03:44:54.702Z,0.00
2023-01-20T03:45:54.791Z,0.00
2023-01-20T03:46:54.718Z,0.00
2023-01-20T03:47:54.728Z,0.00
2023-01-20T03:48:54.708Z,0.00
2023-01-20T03:49:54.704Z,0.00
2023-01-20T03:50:54.719Z,0.00
2023-01-20T03:51:54.736Z,0.00
2023-01-20T03:52:54.688Z,0.00
2023-01-20T03:53:54.702Z,0.00
2023-01-20T03:54:54.679Z,0.00
2023-01-20T03:55:54.659Z,0.00
2023-01-20T03:56:54.679Z,0.00
2023-01-20T03:57:54.669Z,0.00
2023-01-20T03:58:54.679Z,0.00
2023-01-20T03:59:54.672Z,0.00
2023-01-20T04:00:54.674Z,0.00
2023-01-20T04:01:54.716Z,0.00
2023-01-20T04:02:54.660Z,0.00
2023-01-20T04:03:54.632Z,0.00
2023-01-20T04:04:54.718Z,0.00
2023-01-20T04:05:54.643Z,0.00
2023-01-20T04:06:54.620Z,0.00
2023-01-20T04:07:54.633Z,0.00
2023-01-20T04:08:56.623Z,0.00
2023-01-20T04:09:54.619Z,0.00
2023-01-20T04:10:54.588Z,0.00
2023-01-20T04:11:54.638Z,0.00
2023-01-20T04:12:54.595Z,0.00
2023-01-20T04:13:54.616Z,0.00
2023-01-20T04:14:54.595Z,0.00
2023-01-20T04:15:54.612Z,0.00
2023-01-20T04:16:54.591Z,0.00
2023-01-20T04:17:54.593Z,0.00
2023-01-20T04:18:54.566Z,0.00
2023-01-20T04:19:54.570Z,0.00
2023-01-20T04:20:54.545Z,0.00
2023-01-20T04:21:54.548Z,0.00
2023-01-20T04:22:54.565Z,0.00
2023-01-20T04:23:55.559Z,0.00
2023-01-20T04:24:54.585Z,0.00
2023-01-20T04:25:54.529Z,0.00
2023-01-20T04:26:54.527Z,0.00
2023-01-20T04:27:54.529Z,0.00
2023-01-20T04:28:54.520Z,0.00
2023-01-20T04:29:54.575Z,0.00
2023-01-20T04:30:54.686Z,0.00
2023-01-20T04:31:54.650Z,0.00
2023-01-20T04:32:54.521Z,0.00
2023-01-20T04:33:54.510Z,0.00
2023-01-20T04:34:54.513Z,0.00
2023-01-20T04:35:54.483Z,0.00
2023-01-20T04:36:55.054Z,0.00
2023-01-20T04:37:54.585Z,0.00
2023-01-20T04:38:54.467Z,0.00
2023-01-20T04:39:55.192Z,0.00
2023-01-20T04:40:54.628Z,0.00
2023-01-20T04:41:54.528Z,0.00
2023-01-20T04:42:54.480Z,0.00
2023-01-20T04:43:56.075Z,0.00
2023-01-20T04:44:54.544Z,0.00
2023-01-20T04:45:54.497Z,0.00
2023-01-20T04:46:54.441Z,0.00
2023-01-20T04:47:55.072Z,0.00
2023-01-20T04:48:54.484Z,0.00
2023-01-20T04:49:54.461Z,0.00
2023-01-20T04:50:55.582Z,0.00
2023-01-20T04:51:54.455Z,0.00
2023-01-20T04:52:54.453Z,0.00
2023-01-20T04:53:54.396Z,0.00
2023-01-20T04:54:54.402Z,0.00
2023-01-20T04:55:54.417Z,0.00
2023-01-20T04:56:54.383Z,0.00
2023-01-20T04:57:54.392Z,0.00
2023-01-20T04:58:55.057Z,0.00
2023-01-20T04:59:55.054Z,0.00
2023-01-20T05:00:54.386Z,0.00
2023-01-20T05:01:54.543Z,0.00
2023-01-20T05:02:54.366Z,0.00
2023-01-20T05:03:54.334Z,0.00
2023-01-20T05:04:54.363Z,0.00
2023-01-20T05:05:54.352Z,0.00
2023-01-20T05:06:54.327Z,0.00
2023-01-20T05:07:54.391Z,0.00
2023-01-20T05:08:54.334Z,0.00
2023-01-20T05:09:54.316Z,0.00
2023-01-20T05:10:54.329Z,0.00
2023-01-20T05:11:54.328Z,0.00
2023-01-20T05:12:54.325Z,0.00
2023-01-20T05:13:54.307Z,0.00
2023-01-20T05:14:54.353Z,0.00
2023-01-20T05:15:54.360Z,0.00
2023-01-20T05:16:54.355Z,0.00
2023-01-20T05:17:54.830Z,0.00
2023-01-20T05:18:55.598Z,0.00
2023-01-20T05:19:54.311Z,0.00
2023-01-20T05:20:54.279Z,0.00
2023-01-20T05:21:54.256Z,0.00
2023-01-20T05:22:54.270Z,0.00
2023-01-20T05:24:02.891Z,0.00
2023-01-20T05:24:54.246Z,0.00
2023-01-20T05:25:54.239Z,0.00
2023-01-20T05:26:54.266Z,0.00
2023-01-20T05:27:56.092Z,0.00
2023-01-20T05:33:26.404Z,0.00
2023-01-20T05:49:29.300Z,0.00
2023-01-20T05:50:09.360Z,0.00
2023-01-20T05:51:09.486Z,0.00
2023-01-20T05:52:30.255Z,0.00
2023-01-20T06:02:47.371Z,0.00
2023-01-20T06:10:17.493Z,0.00
2023-01-20T06:11:17.729Z,0.00
2023-01-20T06:13:26.179Z,0.00
2023-01-20T06:24:02.164Z,0.00
2023-01-20T06:24:42.820Z,0.00
2023-01-20T06:26:16.900Z,0.00
2023-01-20T06:40:23.439Z,0.00
2023-01-20T06:41:23.648Z,0.00
2023-01-20T06:42:23.477Z,0.00
2023-01-20T06:43:25.107Z,0.00
2023-01-20T06:44:25.587Z,4.00
2023-01-20T06:47:51.469Z,0.00
2023-01-20T06:48:28.488Z,4.00
2023-01-20T07:02:51.695Z,8.00
2023-01-20T07:06:35.962Z,12.00
2023-01-20T07:07:35.880Z,12.00
2023-01-20T07:09:36.934Z,12.00
2023-01-20T07:27:00.943Z,44.00
2023-01-20T07:28:00.816Z,40.00
2023-01-20T07:29:00.832Z,44.00
2023-01-20T07:34:00.651Z,44.00
2023-01-20T07:34:41.688Z,44.00
2023-01-20T07:35:31.916Z,44.00
2023-01-20T07:42:43.845Z,56.00
2023-01-20T07:43:41.597Z,56.00
2023-01-20T07:44:44.348Z,60.00
2023-01-20T07:47:25.668Z,64.00
2023-01-20T07:49:17.566Z,68.00
2023-01-20T07:50:17.490Z,68.00
2023-01-20T07:54:52.382Z,92.00
2023-01-20T07:55:51.851Z,100.00
2023-01-20T07:56:51.673Z,112.00
2023-01-20T08:01:37.317Z,148.00
2023-01-20T08:02:34.666Z,156.00
2023-01-20T08:24:07.326Z,272.00
2023-01-20T08:30:37.236Z,348.00
2023-01-20T08:35:21.544Z,372.00
2023-01-20T08:35:48.302Z,368.00
2023-01-20T08:36:47.378Z,392.00
2023-01-20T08:37:50.802Z,384.00
2023-01-20T08:38:47.373Z,400.00
2023-01-20T08:39:51.797Z,428.00
2023-01-20T08:40:50.874Z,448.00
2023-01-20T08:41:48.172Z,424.00
2023-01-20T08:42:47.812Z,420.00
2023-01-20T08:51:38.804Z,472.00
2023-01-20T09:34:41.321Z,576.00
2023-01-20T09:53:23.555Z,608.00
2023-01-20T10:00:12.082Z,720.00
2023-01-20T10:00:48.541Z,784.00
2023-01-20T10:18:39.467Z,876.00
2023-01-20T11:25:00.634Z,1008.00
2023-01-20T11:25:36.867Z,1112.00
2023-01-20T11:34:34.422Z,1096.00
2023-01-20T11:35:34.450Z,1128.00
2023-01-20T11:36:34.378Z,1124.00
2023-01-20T11:37:34.396Z,1060.00
2023-01-20T11:38:34.397Z,1004.00
2023-01-20T11:39:34.699Z,976.00
2023-01-20T11:40:34.390Z,928.00
2023-01-20T11:41:34.388Z,888.00
2023-01-20T11:42:36.690Z,844.00
2023-01-20T11:43:34.366Z,788.00
2023-01-20T11:44:34.354Z,740.00
2023-01-20T11:45:34.347Z,716.00
2023-01-20T11:46:34.442Z,716.00
2023-01-20T11:47:34.349Z,748.00
2023-01-20T11:48:34.338Z,756.00
2023-01-20T11:49:34.345Z,776.00
2023-01-20T11:50:34.357Z,816.00
2023-01-20T11:51:34.347Z,848.00
2023-01-20T11:52:34.323Z,864.00
2023-01-20T11:53:34.347Z,848.00
2023-01-20T11:54:36.988Z,860.00
2023-01-20T11:55:34.312Z,852.00
2023-01-20T11:56:34.413Z,860.00
2023-01-20T11:57:34.340Z,880.00
2023-01-20T11:58:34.308Z,900.00
2023-01-20T11:59:34.299Z,848.00
2023-01-20T12:00:36.403Z,792.00
2023-01-20T12:01:34.367Z,760.00
2023-01-20T12:04:10.545Z,764.00
2023-01-20T12:05:06.326Z,716.00
2023-01-20T12:06:06.333Z,672.00
2023-01-20T12:07:06.336Z,648.00
2023-01-20T12:08:06.322Z,604.00
2023-01-20T12:09:06.320Z,672.00
2023-01-20T12:10:06.306Z,700.00
2023-01-20T12:11:06.326Z,728.00
2023-01-20T12:12:06.305Z,772.00
2023-01-20T12:13:06.313Z,832.00
2023-01-20T12:14:06.321Z,920.00
2023-01-20T12:15:06.292Z,972.00
2023-01-20T12:16:06.346Z,888.00
2023-01-20T12:17:06.296Z,864.00
2023-01-20T12:18:08.223Z,988.00
2023-01-20T12:19:06.352Z,1128.00
2023-01-20T12:20:06.276Z,1204.00
2023-01-20T12:21:06.256Z,1176.00
2023-01-20T12:22:06.275Z,1104.00
2023-01-20T12:23:06.284Z,1084.00
2023-01-20T12:24:06.282Z,1072.00
2023-01-20T12:25:06.253Z,1052.00
2023-01-20T12:26:06.265Z,1000.00
2023-01-20T12:27:06.240Z,960.00
2023-01-20T12:28:06.298Z,932.00
2023-01-20T12:29:06.235Z,888.00
2023-01-20T12:36:33.607Z,744.00
2023-01-20T12:37:14.459Z,776.00
2023-01-20T12:40:09.156Z,776.00
2023-01-20T12:40:47.546Z,780.00
2023-01-20T12:41:47.538Z,780.00
2023-01-20T12:42:47.570Z,772.00
2023-01-20T12:43:47.527Z,744.00
2023-01-20T12:44:47.554Z,708.00
2023-01-20T12:45:47.609Z,676.00
2023-01-20T12:46:47.546Z,644.00
2023-01-20T12:47:47.556Z,604.00
2023-01-20T12:48:47.521Z,576.00
2023-01-20T12:49:47.518Z,528.00
2023-01-20T12:50:47.571Z,520.00
2023-01-20T12:51:47.511Z,544.00
2023-01-20T12:52:47.590Z,624.00
2023-01-20T12:53:47.514Z,656.00
2023-01-20T12:54:49.118Z,672.00
2023-01-20T12:55:47.478Z,680.00
2023-01-20T12:56:47.491Z,680.00
2023-01-20T12:57:47.548Z,664.00
2023-01-20T12:58:47.468Z,652.00
2023-01-20T12:59:47.485Z,648.00
2023-01-20T13:00:47.527Z,656.00
2023-01-20T13:01:47.490Z,668.00
2023-01-20T13:02:47.547Z,684.00
2023-01-20T13:03:47.536Z,692.00
2023-01-20T13:04:47.470Z,696.00
2023-01-20T13:05:47.444Z,712.00
2023-01-20T13:06:47.476Z,736.00
2023-01-20T13:07:47.452Z,752.00
2023-01-20T13:08:47.451Z,760.00
2023-01-20T13:09:47.718Z,760.00
2023-01-20T13:10:51.059Z,760.00
2023-01-20T13:11:47.442Z,756.00
2023-01-20T13:12:47.430Z,736.00
2023-01-20T13:13:56.718Z,708.00
2023-01-20T13:14:47.480Z,692.00
2023-01-20T13:15:47.412Z,672.00
2023-01-20T13:16:47.450Z,664.00
2023-01-20T13:17:47.413Z,640.00
2023-01-20T13:18:47.403Z,620.00
2023-01-20T13:19:47.397Z,604.00
2023-01-20T13:20:47.427Z,596.00
2023-01-20T13:21:59.399Z,584.00
2023-01-20T13:22:47.402Z,576.00
2023-01-20T13:23:47.396Z,572.00
2023-01-20T13:24:47.414Z,560.00
2023-01-20T13:25:47.382Z,548.00
2023-01-20T13:26:47.386Z,528.00
2023-01-20T13:27:47.782Z,504.00
2023-01-20T13:28:47.372Z,480.00
2023-01-20T13:29:47.375Z,460.00
2023-01-20T13:30:47.561Z,448.00
2023-01-20T13:31:47.604Z,436.00
2023-01-20T13:32:47.340Z,428.00
2023-01-20T13:33:47.344Z,420.00
2023-01-20T13:34:47.331Z,412.00
2023-01-20T13:35:47.338Z,396.00
2023-01-20T13:36:47.327Z,392.00
2023-01-20T13:37:47.359Z,388.00
2023-01-20T13:38:47.346Z,388.00
2023-01-20T13:39:47.333Z,384.00
2023-01-20T13:40:47.302Z,384.00
2023-01-20T13:41:47.321Z,376.00
2023-01-20T13:42:47.453Z,376.00
2023-01-20T13:43:47.308Z,368.00
2023-01-20T13:44:47.277Z,364.00
2023-01-20T13:45:47.312Z,356.00
2023-01-20T13:46:47.320Z,356.00
2023-01-20T13:47:47.290Z,352.00
2023-01-20T13:48:47.313Z,356.00
2023-01-20T13:49:47.319Z,360.00
2023-01-20T13:50:47.319Z,360.00
2023-01-20T13:51:47.265Z,356.00
2023-01-20T13:52:47.336Z,356.00
2023-01-20T13:53:47.276Z,356.00
2023-01-20T13:54:47.287Z,360.00
2023-01-20T13:55:47.273Z,368.00
2023-01-20T13:56:47.250Z,376.00
2023-01-20T13:57:47.253Z,372.00
2023-01-20T13:58:47.291Z,376.00
2023-01-20T13:59:47.237Z,384.00
2023-01-20T14:00:47.233Z,376.00
2023-01-20T14:01:47.255Z,368.00
2023-01-20T14:02:47.250Z,372.00
2023-01-20T14:03:47.234Z,380.00
2023-01-20T14:04:47.209Z,392.00
2023-01-20T14:05:47.220Z,404.00
2023-01-20T14:06:47.254Z,416.00
2023-01-20T14:07:47.211Z,440.00
2023-01-20T14:08:47.215Z,472.00
2023-01-20T14:09:47.198Z,480.00
2023-01-20T14:10:47.186Z,488.00
2023-01-20T14:11:47.189Z,484.00
2023-01-20T14:12:47.175Z,476.00
2023-01-20T14:13:47.187Z,480.00
2023-01-20T14:14:47.176Z,504.00
2023-01-20T14:15:47.329Z,536.00
2023-01-20T14:16:47.300Z,548.00
2023-01-20T14:17:47.197Z,528.00
2023-01-20T14:18:47.161Z,496.00
2023-01-20T14:19:47.171Z,460.00
2023-01-20T14:20:47.135Z,436.00
2023-01-20T14:21:47.152Z,424.00
2023-01-20T14:22:50.142Z,428.00
2023-01-20T14:23:47.145Z,424.00
2023-01-20T14:24:47.145Z,428.00
2023-01-20T14:25:47.161Z,436.00
2023-01-20T14:26:47.151Z,424.00
2023-01-20T14:27:47.133Z,420.00
2023-01-20T14:28:47.100Z,420.00
2023-01-20T14:29:47.137Z,436.00
2023-01-20T14:30:48.762Z,452.00
2023-01-20T14:31:47.134Z,464.00
2023-01-20T14:32:47.392Z,476.00
2023-01-20T14:33:47.150Z,476.00
2023-01-20T14:34:47.103Z,472.00
2023-01-20T14:35:47.119Z,468.00
2023-01-20T14:36:47.089Z,452.00
2023-01-20T14:37:47.118Z,436.00
2023-01-20T14:38:56.972Z,432.00
2023-01-20T14:39:47.070Z,428.00
2023-01-20T14:40:47.064Z,428.00
2023-01-20T14:41:47.066Z,424.00
2023-01-20T14:42:47.042Z,408.00
2023-01-20T14:43:47.059Z,388.00
2023-01-20T14:44:47.031Z,372.00
2023-01-20T14:45:47.041Z,360.00
2023-01-20T14:46:47.044Z,336.00
2023-01-20T14:47:47.038Z,316.00
2023-01-20T14:48:47.032Z,296.00
2023-01-20T14:49:47.027Z,280.00
2023-01-20T14:50:47.020Z,268.00
2023-01-20T14:51:47.020Z,252.00
2023-01-20T14:52:47.027Z,240.00
2023-01-20T14:53:47.048Z,236.00
2023-01-20T14:54:47.052Z,232.00
2023-01-20T14:55:47.260Z,240.00
2023-01-20T14:56:46.990Z,236.00
2023-01-20T14:57:46.989Z,236.00
2023-01-20T14:58:47.033Z,228.00
2023-01-20T14:59:47.022Z,220.00
2023-01-20T15:00:46.990Z,212.00
2023-01-20T15:01:47.013Z,204.00
2023-01-20T15:02:49.220Z,188.00
2023-01-20T15:03:46.986Z,176.00
2023-01-20T15:04:47.031Z,164.00
2023-01-20T15:05:46.960Z,156.00
2023-01-20T15:06:46.970Z,152.00
2023-01-20T15:07:46.981Z,148.00
2023-01-20T15:09:04.453Z,144.00
2023-01-20T15:09:46.952Z,144.00
2023-01-20T15:10:46.952Z,144.00
2023-01-20T15:11:48.139Z,136.00
2023-01-20T15:12:46.928Z,132.00
2023-01-20T15:13:46.957Z,128.00
2023-01-20T15:14:46.913Z,120.00
2023-01-20T15:15:47.066Z,112.00
2023-01-20T15:16:47.001Z,108.00
2023-01-20T15:17:46.929Z,100.00
2023-01-20T15:18:46.897Z,96.00
2023-01-20T15:19:46.894Z,92.00
2023-01-20T15:20:46.897Z,92.00
2023-01-20T15:21:46.917Z,84.00
2023-01-20T15:22:47.104Z,84.00
2023-01-20T15:23:46.902Z,76.00
2023-01-20T15:24:46.881Z,72.00
2023-01-20T15:25:48.642Z,64.00
2023-01-20T15:26:47.673Z,60.00
2023-01-20T15:27:46.883Z,52.00
2023-01-20T15:28:46.913Z,48.00
2023-01-20T15:29:46.868Z,48.00
2023-01-20T15:30:46.888Z,44.00
2023-01-20T15:31:46.943Z,40.00
2023-01-20T15:32:46.847Z,36.00
2023-01-20T15:33:46.846Z,32.00
2023-01-20T15:34:46.962Z,28.00
2023-01-20T15:35:46.865Z,28.00
2023-01-20T15:36:46.851Z,24.00
2023-01-20T15:37:46.894Z,24.00
2023-01-20T15:38:46.827Z,20.00
2023-01-20T15:39:46.827Z,20.00
2023-01-20T15:40:46.821Z,16.00
2023-01-20T15:41:46.804Z,16.00
2023-01-20T15:42:46.813Z,12.00
2023-01-20T15:43:46.815Z,12.00
2023-01-20T15:44:46.802Z,12.00
2023-01-20T15:45:46.790Z,12.00
2023-01-20T15:46:46.826Z,8.00
2023-01-20T15:47:46.778Z,8.00
2023-01-20T15:48:46.837Z,8.00
2023-01-20T15:49:46.848Z,4.00
2023-01-20T15:50:46.831Z,4.00
2023-01-20T15:51:46.763Z,4.00
2023-01-20T15:52:46.758Z,4.00
2023-01-20T15:53:46.790Z,0.00
2023-01-20T15:54:46.766Z,4.00
2023-01-20T15:55:46.756Z,4.00
2023-01-20T15:56:46.768Z,0.00
2023-01-20T15:57:46.766Z,0.00
2023-01-20T15:58:46.836Z,4.00
2023-01-20T15:59:46.739Z,4.00
2023-01-20T16:00:46.731Z,0.00
2023-01-20T16:01:46.781Z,0.00
2023-01-20T16:02:46.841Z,0.00
2023-01-20T16:03:46.927Z,0.00
2023-01-20T16:04:46.753Z,0.00
2023-01-20T16:05:46.750Z,0.00
2023-01-20T16:06:46.754Z,0.00
2023-01-20T16:07:46.702Z,0.00
2023-01-20T16:08:46.806Z,0.00
2023-01-20T16:09:46.786Z,0.00
2023-01-20T16:10:46.685Z,0.00
2023-01-20T16:11:46.709Z,0.00
2023-01-20T16:12:46.686Z,0.00
2023-01-20T16:13:46.709Z,0.00
2023-01-20T16:14:46.683Z,0.00
2023-01-20T16:15:46.798Z,0.00
2023-01-20T16:16:46.674Z,0.00
2023-01-20T16:17:46.667Z,0.00
2023-01-20T16:18:46.651Z,0.00
2023-01-20T16:19:46.817Z,0.00
2023-01-20T16:20:46.643Z,0.00
2023-01-20T16:21:46.653Z,0.00
2023-01-20T16:22:46.648Z,0.00
2023-01-20T16:23:46.634Z,0.00
2023-01-20T16:24:46.663Z,0.00
2023-01-20T16:25:46.633Z,0.00
2023-01-20T16:26:46.619Z,0.00
2023-01-20T16:27:46.634Z,0.00
2023-01-20T16:28:46.600Z,0.00
2023-01-20T16:29:46.592Z,0.00
2023-01-20T16:30:46.643Z,0.00
2023-01-20T16:31:46.634Z,0.00
2023-01-20T16:32:46.706Z,0.00
2023-01-20T16:33:46.591Z,0.00
2023-01-20T16:34:46.612Z,0.00
2023-01-20T16:35:46.568Z,0.00
2023-01-20T16:36:46.596Z,0.00
2023-01-20T16:37:46.566Z,0.00
2023-01-20T16:38:46.672Z,0.00
2023-01-20T16:39:46.580Z,0.00
2023-01-20T16:40:46.553Z,0.00
2023-01-20T16:41:46.560Z,0.00
2023-01-20T16:42:46.562Z,0.00
2023-01-20T16:43:46.546Z,0.00
2023-01-20T16:44:46.547Z,0.00
2023-01-20T16:45:46.569Z,0.00
2023-01-20T16:46:46.526Z,0.00
2023-01-20T16:47:46.528Z,0.00
2023-01-20T16:48:46.531Z,0.00
2023-01-20T16:49:46.530Z,0.00
2023-01-20T16:50:46.536Z,0.00
2023-01-20T16:51:46.602Z,0.00
2023-01-20T16:52:46.497Z,0.00
2023-01-20T16:53:46.517Z,0.00
2023-01-20T16:54:46.488Z,0.00
2023-01-20T16:55:46.484Z,0.00
2023-01-20T16:56:46.490Z,0.00
2023-01-20T16:57:46.493Z,0.00
2023-01-20T16:58:46.476Z,0.00
2023-01-20T16:59:46.481Z,0.00
2023-01-20T17:00:46.493Z,0.00
2023-01-20T17:01:46.488Z,0.00
2023-01-20T17:02:46.445Z,0.00
2023-01-20T17:03:46.448Z,0.00
2023-01-20T17:04:46.447Z,0.00
2023-01-20T17:05:46.433Z,0.00
2023-01-20T17:06:46.427Z,0.00
2023-01-20T17:07:46.443Z,0.00
2023-01-20T17:08:46.432Z,0.00
2023-01-20T17:09:46.438Z,0.00
2023-01-20T17:10:46.461Z,0.00
2023-01-20T17:11:46.393Z,0.00
2023-01-20T17:12:48.831Z,0.00
2023-01-20T17:13:46.402Z,0.00
2023-01-20T17:14:46.399Z,0.00
2023-01-20T17:15:46.399Z,0.00
2023-01-20T17:16:46.404Z,0.00
2023-01-20T17:17:46.369Z,0.00
2023-01-20T17:18:46.431Z,0.00
2023-01-20T17:19:46.357Z,0.00
2023-01-20T17:20:46.353Z,0.00
2023-01-20T17:21:46.381Z,0.00
2023-01-20T17:22:46.354Z,0.00
2023-01-20T17:23:46.418Z,0.00
2023-01-20T17:24:46.377Z,0.00
2023-01-20T17:25:46.362Z,0.00
2023-01-20T17:26:46.342Z,0.00
2023-01-20T17:27:46.312Z,0.00
2023-01-20T17:28:46.348Z,0.00
2023-01-20T17:29:46.322Z,0.00
2023-01-20T17:30:46.497Z,0.00
2023-01-20T17:31:46.341Z,0.00
2023-01-20T17:32:46.329Z,0.00
2023-01-20T17:33:46.300Z,0.00
2023-01-20T17:34:46.292Z,0.00
2023-01-20T17:35:47.208Z,0.00
2023-01-20T17:36:46.282Z,0.00
2023-01-20T17:37:46.275Z,0.00
2023-01-20T17:38:46.272Z,0.00
2023-01-20T17:39:46.263Z,0.00
2023-01-20T17:40:46.274Z,0.00
2023-01-20T17:41:46.269Z,0.00
2023-01-20T17:42:46.243Z,0.00
2023-01-20T17:43:46.267Z,0.00
2023-01-20T17:44:46.231Z,0.00
2023-01-20T17:45:46.306Z,0.00
2023-01-20T17:46:46.250Z,0.00
2023-01-20T17:47:46.244Z,0.00
2023-01-20T17:48:46.235Z,0.00
2023-01-20T17:49:55.836Z,0.00
2023-01-20T17:50:54.355Z,0.00
2023-01-20T17:51:54.868Z,0.00
2023-01-20T17:52:54.881Z,0.00
2023-01-20T17:53:54.428Z,0.00
2023-01-20T17:54:55.449Z,0.00
2023-01-20T17:56:06.611Z,0.00
2023-01-20T17:56:54.515Z,0.00
2023-01-20T17:57:55.556Z,0.00
2023-01-20T18:00:35.280Z,0.00
2023-01-20T18:01:34.468Z,0.00
2023-01-20T18:02:34.278Z,0.00
2023-01-20T18:03:35.298Z,0.00
2023-01-20T18:06:12.533Z,0.00
2023-01-20T18:07:04.822Z,0.00
2023-01-20T18:08:04.636Z,0.00
2023-01-20T18:09:04.614Z,0.00
2023-01-20T18:10:12.873Z,0.00
2023-01-20T18:11:12.433Z,0.00
2023-01-20T18:12:12.331Z,0.00
2023-01-20T18:13:12.316Z,0.00
2023-01-20T18:14:12.414Z,0.00
2023-01-20T18:15:13.065Z,0.00
2023-01-20T18:16:12.461Z,0.00
2023-01-20T18:17:15.188Z,0.00
2023-01-20T18:19:44.903Z,0.00
2023-01-20T18:20:45.115Z,0.00
2023-01-20T18:21:59.076Z,0.00